Time;durP1;ratioP1;P1;durP2;ratioP2;P2;SDS_P1;SDS_P2;PMS_P1;PMS_P2;Temp;Humidity;BMP_temperature;BMP_pressure;BME280_temperature;BME280_humidity;BME280_pressure;Samples;Min_cycle;Max_cycle;Signal;HPM_P1;HPM_P2
2023/03/22 00:01:45;;;;;;;12.65;5.15;;;;;;;8.84;100.00;100904.72;4990743;28;20054;-79
2023/03/22 00:04:11;;;;;;;9.27;4.80;;;;;;;8.83;100.00;100904.81;4986145;28;20088;-83
2023/03/22 00:06:36;;;;;;;9.13;4.32;;;;;;;8.79;100.00;100907.63;4960888;28;20110;-83
2023/03/22 00:09:02;;;;;;;10.60;4.80;;;;;;;8.75;100.00;100900.91;4985399;28;20521;-79
2023/03/22 00:11:27;;;;;;;9.73;4.15;;;;;;;8.75;100.00;100900.91;5022310;28;20061;-83
2023/03/22 00:13:53;;;;;;;10.75;4.00;;;;;;;8.70;100.00;100897.75;4989406;28;20030;-80
2023/03/22 00:16:20;;;;;;;8.43;3.78;;;;;;;8.72;100.00;100892.38;5018683;28;20117;-82
2023/03/22 00:18:46;;;;;;;10.55;4.30;;;;;;;8.69;100.00;100890.81;4990400;28;20335;-83
2023/03/22 00:21:15;;;;;;;12.48;4.35;;;;;;;8.64;100.00;100886.81;4986224;28;20030;-83
2023/03/22 00:23:41;;;;;;;9.73;4.38;;;;;;;8.64;100.00;100887.66;5001725;28;20031;-83
2023/03/22 00:26:08;;;;;;;9.40;3.47;;;;;;;8.64;100.00;100887.66;4986085;28;20549;-83
2023/03/22 00:28:35;;;;;;;11.30;4.18;;;;;;;8.63;100.00;100880.72;4989141;28;20034;-83
2023/03/22 00:31:01;;;;;;;11.88;4.30;;;;;;;8.59;100.00;100866.13;4990077;28;20033;-83
2023/03/22 00:33:29;;;;;;;9.63;3.88;;;;;;;8.61;100.00;100866.88;5004706;28;20030;-83
2023/03/22 00:35:59;;;;;;;12.13;4.15;;;;;;;8.53;100.00;100869.16;4992756;28;20430;-83
2023/03/22 00:38:24;;;;;;;8.75;4.07;;;;;;;8.55;100.00;100867.28;4967881;28;20109;-83
2023/03/22 00:40:49;;;;;;;12.45;4.15;;;;;;;8.54;100.00;100860.34;4962941;28;20122;-83
2023/03/22 00:43:15;;;;;;;11.80;4.47;;;;;;;8.55;100.00;100854.16;4991815;28;20057;-83
2023/03/22 00:45:41;;;;;;;11.32;4.70;;;;;;;8.54;100.00;100855.09;5006551;28;20638;-83
2023/03/22 00:48:08;;;;;;;10.98;4.50;;;;;;;8.52;100.00;100851.75;4989921;28;20087;-83
2023/03/22 00:50:33;;;;;;;10.40;4.65;;;;;;;8.52;100.00;100849.13;4988738;28;20045;-82
2023/03/22 00:52:59;;;;;;;10.43;4.30;;;;;;;8.52;100.00;100846.50;4987245;28;20082;-83
2023/03/22 00:55:25;;;;;;;10.85;4.75;;;;;;;8.52;100.00;100841.25;4973195;28;20081;-83
2023/03/22 00:57:50;;;;;;;13.40;4.68;;;;;;;8.52;100.00;100835.16;4971889;28;20034;-82
2023/03/22 01:00:16;;;;;;;13.85;5.25;;;;;;;8.52;100.00;100832.53;4976683;28;20034;-82
2023/03/22 01:02:42;;;;;;;11.95;5.00;;;;;;;8.50;100.00;100832.66;4991931;28;20045;-83
2023/03/22 01:05:08;;;;;;;14.73;6.00;;;;;;;8.52;100.00;100830.75;5019010;28;20022;-82
2023/03/22 01:07:37;;;;;;;17.48;5.80;;;;;;;8.51;100.00;100826.47;4988978;28;20057;-83
2023/03/22 01:10:03;;;;;;;12.93;6.57;;;;;;;8.55;100.00;100820.06;4981595;28;20043;-83
2023/03/22 01:12:29;;;;;;;16.30;6.97;;;;;;;8.57;100.00;100818.19;4964000;28;20115;-83
2023/03/22 01:14:55;;;;;;;14.82;8.27;;;;;;;8.59;100.00;100815.47;5020730;28;20046;-83
2023/03/22 01:17:21;;;;;;;13.30;8.35;;;;;;;8.58;100.00;100819.88;4988287;28;20034;-83
2023/03/22 01:19:47;;;;;;;16.08;8.60;;;;;;;8.62;100.00;100812.63;5021852;28;20061;-83
2023/03/22 01:22:13;;;;;;;15.23;8.98;;;;;;;8.63;100.00;100809.91;4989148;28;20042;-83
2023/03/22 01:24:39;;;;;;;15.93;9.73;;;;;;;8.65;100.00;100794.06;4992415;28;20420;-82
2023/03/22 01:27:04;;;;;;;15.98;9.85;;;;;;;8.69;100.00;100791.13;4981695;28;20404;-83
2023/03/22 01:29:30;;;;;;;16.80;10.13;;;;;;;8.73;100.00;100774.25;4966530;28;20046;-79
2023/03/22 01:31:56;;;;;;;13.75;9.68;;;;;;;8.74;100.00;100773.31;4989636;28;20424;-82
2023/03/22 01:34:21;;;;;;;14.98;10.25;;;;;;;8.77;100.00;100765.22;4988606;28;20571;-83
2023/03/22 01:36:47;;;;;;;14.52;10.52;;;;;;;8.81;100.00;100765.03;4991399;28;20487;-83
2023/03/22 01:39:13;;;;;;;16.88;11.30;;;;;;;8.85;100.00;100758.66;4989434;28;20153;-79
2023/03/22 01:41:39;;;;;;;18.35;10.60;;;;;;;8.87;100.00;100757.59;4990181;28;20022;-78
2023/03/22 01:44:13;;;;;;;19.05;10.65;;;;;;;8.91;100.00;100752.97;4990473;28;20041;-82
2023/03/22 01:46:40;;;;;;;16.10;10.90;;;;;;;8.92;100.00;100744.16;4979732;28;20042;-82
2023/03/22 01:49:10;;;;;;;15.55;10.52;;;;;;;8.96;100.00;100745.63;4980864;28;20113;-82
2023/03/22 01:51:38;;;;;;;14.32;10.68;;;;;;;8.96;100.00;100740.38;5001744;28;20026;-79
2023/03/22 01:54:08;;;;;;;14.95;10.63;;;;;;;8.99;100.00;100729.66;4990767;28;20034;-82
2023/03/22 01:56:36;;;;;;;16.48;11.30;;;;;;;9.04;100.00;100724.94;4990123;28;20409;-82
2023/03/22 01:59:01;;;;;;;19.83;11.68;;;;;;;9.06;100.00;100725.66;4988323;28;20088;-82
2023/03/22 02:01:29;;;;;;;15.73;11.38;;;;;;;9.07;100.00;100727.34;4990232;28;20022;-79
2023/03/22 02:04:05;;;;;;;15.43;11.55;;;;;;;9.08;100.00;100719.34;4967090;28;20031;-82
2023/03/22 02:06:36;;;;;;;16.52;11.07;;;;;;;9.07;100.00;100707.19;4978591;28;20434;-82
2023/03/22 02:09:04;;;;;;;18.80;12.18;;;;;;;9.10;100.00;100716.63;4964407;28;20042;-82
2023/03/22 02:11:40;;;;;;;16.42;11.60;;;;;;;9.08;100.00;100718.53;4983725;28;20041;-83
2023/03/22 02:14:32;;;;;;;15.73;11.55;;;;;;;9.11;100.00;100707.81;4985602;28;20425;-81
2023/03/22 02:17:03;;;;;;;16.20;11.75;;;;;;;9.13;100.00;100705.91;4989407;28;20479;-82
2023/03/22 02:19:35;;;;;;;14.65;11.63;;;;;;;9.10;100.00;100703.50;4974672;28;20143;-82
2023/03/22 02:22:37;;;;;;;15.15;11.98;;;;;;;9.13;100.00;100705.91;4987514;28;20026;-82
2023/03/22 02:25:37;;;;;;;16.23;11.77;;;;;;;9.14;100.00;100707.59;4985134;28;20501;-82
2023/03/22 02:28:21;;;;;;;13.38;11.60;;;;;;;9.15;100.00;100698.75;4989857;28;20030;-82
2023/03/22 02:31:21;;;;;;;16.02;12.27;;;;;;;9.17;100.00;100699.50;4990525;28;20049;-82
2023/03/22 02:34:14;;;;;;;13.32;11.57;;;;;;;9.19;100.00;100694.97;5006480;28;20037;-82
2023/03/22 02:36:53;;;;;;;16.02;11.52;;;;;;;9.19;100.00;100700.22;4968040;28;20058;-78
2023/03/22 02:39:50;;;;;;;15.80;11.93;;;;;;;9.23;100.00;100688.59;5000952;28;20035;-81
2023/03/22 02:42:37;;;;;;;14.57;11.57;;;;;;;9.19;100.00;100694.97;4970005;28;20135;-82
2023/03/22 02:45:44;;;;;;;14.77;11.52;;;;;;;9.21;100.00;100687.84;4974822;28;20065;-82
2023/03/22 02:48:21;;;;;;;13.88;10.75;;;;;;;9.23;100.00;100685.97;4986224;28;20125;-82
2023/03/22 02:50:58;;;;;;;13.70;10.32;;;;;;;9.28;100.00;100689.09;4990845;28;20033;-82
2023/03/22 02:53:37;;;;;;;14.18;10.38;;;;;;;9.30;100.00;100686.38;4972323;28;20093;-82
2023/03/22 02:56:15;;;;;;;13.27;10.05;;;;;;;9.32;100.00;100679.22;4974697;28;20476;-82
2023/03/22 02:58:45;;;;;;;12.70;9.48;;;;;;;9.30;100.00;100668.81;4969862;28;20043;-83
2023/03/22 03:01:22;;;;;;;10.77;9.27;;;;;;;9.33;100.00;100670.38;5010949;28;20364;-82
2023/03/22 03:03:49;;;;;;;10.45;8.75;;;;;;;9.33;100.00;100667.75;5021570;28;20124;-82
2023/03/22 03:06:20;;;;;;;12.07;8.68;;;;;;;9.36;100.00;100668.38;4985788;28;20033;-82
2023/03/22 03:08:50;;;;;;;12.60;9.10;;;;;;;9.36;100.00;100665.75;4980609;28;20043;-82
2023/03/22 03:11:16;;;;;;;16.73;8.90;;;;;;;9.35;100.00;100663.25;4994945;28;20055;-79
2023/03/22 03:13:42;;;;;;;11.85;7.47;;;;;;;9.36;100.00;100660.50;4969258;28;20041;-82
2023/03/22 03:16:16;;;;;;;12.93;8.20;;;;;;;9.36;100.00;100660.50;4984302;28;20034;-82
2023/03/22 03:18:47;;;;;;;13.02;7.78;;;;;;;9.37;100.00;100651.69;4988179;28;20391;-82
2023/03/22 03:21:41;;;;;;;10.43;7.25;;;;;;;9.38;100.00;100657.75;5000941;28;20084;-82
2023/03/22 03:24:28;;;;;;;10.50;7.18;;;;;;;9.36;100.00;100660.50;4987317;28;20025;-82
2023/03/22 03:27:02;;;;;;;12.02;7.25;;;;;;;9.34;100.00;100651.91;4956335;28;20031;-82
2023/03/22 03:29:39;;;;;;;13.13;7.30;;;;;;;9.36;100.00;100649.16;4950583;28;20424;-82
2023/03/22 03:32:15;;;;;;;9.38;6.93;;;;;;;9.33;100.00;100650.22;4961454;28;20398;-83
2023/03/22 03:34:54;;;;;;;11.90;7.05;;;;;;;9.33;100.00;100655.47;4988159;28;20475;-79
2023/03/22 03:37:27;;;;;;;12.65;7.10;;;;;;;9.33;100.00;100650.22;4989176;28;20471;-83
2023/03/22 03:40:19;;;;;;;12.13;6.63;;;;;;;9.35;100.00;100647.47;4970612;28;20442;-81
2023/03/22 03:42:51;;;;;;;10.18;6.75;;;;;;;9.32;100.00;100648.53;4961034;28;20031;-82
2023/03/22 03:45:18;;;;;;;10.73;6.60;;;;;;;9.32;100.00;100645.91;4976416;28;20026;-82
2023/03/22 03:47:46;;;;;;;9.00;5.90;;;;;;;9.28;100.00;100652.34;4989394;28;20486;-83
2023/03/22 03:50:15;;;;;;;10.63;6.25;;;;;;;9.27;100.00;100660.31;4989640;28;20046;-82
2023/03/22 03:52:41;;;;;;;9.18;6.20;;;;;;;9.28;100.00;100656.75;4989492;28;20124;-83
2023/03/22 03:55:07;;;;;;;10.05;5.82;;;;;;;9.27;100.00;100655.09;4989250;28;20026;-79
2023/03/22 03:57:32;;;;;;;10.88;5.63;;;;;;;9.25;100.00;100656.97;4976938;28;20046;-83
2023/03/22 03:59:59;;;;;;;8.95;5.38;;;;;;;9.21;100.00;100656.38;4951609;28;20066;-82
2023/03/22 04:02:24;;;;;;;12.23;5.95;;;;;;;9.17;100.00;100660.13;4987096;28;20092;-82
2023/03/22 04:04:50;;;;;;;9.77;5.70;;;;;;;9.16;100.00;100654.97;5021172;28;20487;-82
2023/03/22 04:07:15;;;;;;;11.88;5.40;;;;;;;9.14;100.00;100655.09;4987217;28;20026;-82
2023/03/22 04:09:41;;;;;;;9.20;5.15;;;;;;;9.09;100.00;100651.97;4971839;28;20047;-82
2023/03/22 04:12:08;;;;;;;11.48;5.30;;;;;;;9.07;100.00;100649.44;4974553;28;20718;-79
2023/03/22 04:14:34;;;;;;;7.88;5.13;;;;;;;9.04;100.00;100654.91;5017940;28;20035;-82
2023/03/22 04:16:59;;;;;;;11.27;5.35;;;;;;;9.01;100.00;100651.66;4960368;28;20062;-83
2023/03/22 04:19:25;;;;;;;10.15;5.65;;;;;;;9.00;100.00;100645.59;4950427;28;20670;-83
2023/03/22 04:21:52;;;;;;;12.75;5.43;;;;;;;8.97;100.00;100658.09;4955394;28;20037;-83
2023/03/22 04:24:20;;;;;;;9.95;5.10;;;;;;;8.95;100.00;100644.22;4987230;28;20034;-82
2023/03/22 04:26:45;;;;;;;9.55;5.13;;;;;;;8.94;100.00;100637.31;4974339;28;20022;-82
2023/03/22 04:29:11;;;;;;;9.45;5.05;;;;;;;8.94;100.00;100632.06;4977894;28;20493;-82
2023/03/22 04:31:37;;;;;;;11.02;4.82;;;;;;;8.93;100.00;100636.47;4987828;28;20121;-83
2023/03/22 04:34:05;;;;;;;9.35;5.05;;;;;;;8.92;100.00;100633.97;4963382;28;20585;-83
2023/03/22 04:36:38;;;;;;;8.77;5.07;;;;;;;8.91;100.00;100632.28;4981621;28;20082;-83
2023/03/22 04:39:06;;;;;;;8.00;4.63;;;;;;;8.92;100.00;100636.59;4991504;28;20026;-83
2023/03/22 04:41:33;;;;;;;11.52;5.22;;;;;;;8.92;100.00;100628.72;4989981;28;20108;-80
2023/03/22 04:44:02;;;;;;;9.02;5.28;;;;;;;8.89;100.00;100628.94;4989420;28;20062;-79
2023/03/22 04:46:32;;;;;;;11.23;5.03;;;;;;;8.87;100.00;100642.16;4989333;28;20049;-82
2023/03/22 04:48:58;;;;;;;9.63;4.40;;;;;;;8.87;100.00;100636.06;4989209;28;20023;-81
2023/03/22 04:51:24;;;;;;;8.68;4.85;;;;;;;8.87;100.00;100641.31;4971576;28;20031;-83
2023/03/22 04:53:50;;;;;;;12.63;5.30;;;;;;;8.84;100.00;100629.25;4972717;28;20023;-82
2023/03/22 04:56:15;;;;;;;12.73;5.10;;;;;;;8.87;100.00;100630.81;4983874;28;20042;-82
2023/03/22 04:58:43;;;;;;;10.57;4.57;;;;;;;8.85;100.00;100638.81;5021301;28;20276;-81
2023/03/22 05:01:10;;;;;;;11.43;4.72;;;;;;;8.85;100.00;100632.72;4992848;28;20490;-82
2023/03/22 05:03:36;;;;;;;10.85;4.57;;;;;;;8.85;100.00;100632.72;5001950;28;20395;-82
2023/03/22 05:06:05;;;;;;;6.93;4.43;;;;;;;8.85;100.00;100623.06;4972928;28;20022;-83
2023/03/22 05:08:31;;;;;;;10.75;4.45;;;;;;;8.87;100.00;100623.78;5015770;28;20053;-81
2023/03/22 05:10:58;;;;;;;8.88;4.65;;;;;;;8.88;100.00;100627.25;4972913;28;20039;-79
2023/03/22 05:13:26;;;;;;;10.40;4.70;;;;;;;8.88;100.00;100622.00;4978347;28;20033;-83
2023/03/22 05:15:52;;;;;;;12.13;5.32;;;;;;;8.87;100.00;100620.31;4991221;28;20077;-82
2023/03/22 05:18:25;;;;;;;9.88;4.38;;;;;;;8.86;100.00;100613.41;4987857;28;20023;-83
2023/03/22 05:20:54;;;;;;;9.32;4.70;;;;;;;8.85;100.00;100609.94;4990770;28;20022;-82
2023/03/22 05:23:21;;;;;;;15.00;4.60;;;;;;;8.85;100.00;100614.34;4981682;28;20397;-82
2023/03/22 05:25:47;;;;;;;9.35;4.18;;;;;;;8.86;100.00;100610.78;4986571;28;20042;-83
2023/03/22 05:28:13;;;;;;;10.02;3.97;;;;;;;8.86;100.00;100614.25;4991293;28;20112;-83
2023/03/22 05:30:41;;;;;;;7.43;4.03;;;;;;;8.87;100.00;100620.31;4990392;28;20025;-81
2023/03/22 05:33:07;;;;;;;9.07;3.97;;;;;;;8.86;100.00;100629.16;4991045;28;20026;-82
2023/03/22 05:35:34;;;;;;;12.95;4.35;;;;;;;8.87;100.00;100625.56;4985351;28;20070;-82
2023/03/22 05:37:59;;;;;;;12.18;4.40;;;;;;;8.87;100.00;100617.69;4989450;28;20074;-83
2023/03/22 05:40:26;;;;;;;10.73;4.00;;;;;;;8.85;100.00;100612.56;4973388;28;20026;-82
2023/03/22 05:42:54;;;;;;;11.05;3.90;;;;;;;8.85;100.00;100617.81;4971671;28;20026;-82
2023/03/22 05:45:21;;;;;;;8.95;3.70;;;;;;;8.86;100.00;100608.16;5000876;28;20491;-83
2023/03/22 05:47:47;;;;;;;9.02;3.88;;;;;;;8.86;100.00;100608.16;4970358;28;20022;-83
2023/03/22 05:50:16;;;;;;;9.43;3.67;;;;;;;8.87;100.00;100617.69;4986122;28;20034;-82
2023/03/22 05:52:41;;;;;;;12.05;4.30;;;;;;;8.87;100.00;100625.56;4990888;28;20455;-81
2023/03/22 05:55:08;;;;;;;10.80;4.00;;;;;;;8.87;100.00;100621.16;4986663;28;20129;-81
2023/03/22 05:57:34;;;;;;;10.50;3.85;;;;;;;8.88;100.00;100622.84;4968399;28;20137;-82
2023/03/22 06:00:00;;;;;;;11.45;4.25;;;;;;;8.88;100.00;100616.75;4990950;28;20026;-82
2023/03/22 06:02:27;;;;;;;9.90;4.40;;;;;;;8.91;100.00;100627.88;4985638;28;20026;-82
2023/03/22 06:04:53;;;;;;;8.90;3.40;;;;;;;8.94;100.00;100616.31;4988117;28;20113;-81
2023/03/22 06:07:18;;;;;;;12.88;3.80;;;;;;;8.94;100.00;100611.91;4985501;28;20109;-82
2023/03/22 06:09:44;;;;;;;8.57;3.47;;;;;;;8.96;100.00;100610.00;4979069;28;20566;-79
2023/03/22 06:12:11;;;;;;;9.20;3.42;;;;;;;8.99;100.00;100614.19;4980324;28;20043;-79
2023/03/22 06:14:36;;;;;;;10.27;3.60;;;;;;;8.99;100.00;100615.03;4971208;28;20042;-81
2023/03/22 06:17:01;;;;;;;11.52;3.83;;;;;;;9.01;100.00;100613.16;4980125;28;20057;-82
2023/03/22 06:19:27;;;;;;;6.63;3.42;;;;;;;8.99;100.00;100619.44;4975565;28;20468;-82
2023/03/22 06:21:54;;;;;;;10.77;3.90;;;;;;;9.04;100.00;100610.31;4971679;28;20038;-82
2023/03/22 06:24:20;;;;;;;9.35;3.72;;;;;;;9.09;100.00;100615.22;4971057;28;20031;-81
2023/03/22 06:26:46;;;;;;;10.35;3.83;;;;;;;9.11;100.00;100608.91;4972741;28;20022;-82
2023/03/22 06:29:14;;;;;;;11.90;3.47;;;;;;;9.15;100.00;100613.94;4971647;28;20641;-82
2023/03/22 06:31:40;;;;;;;9.63;3.50;;;;;;;9.20;100.00;100623.16;4965195;28;20105;-81
2023/03/22 06:34:06;;;;;;;15.13;4.00;;;;;;;9.24;100.00;100610.69;5002998;28;20054;-79
2023/03/22 06:36:31;;;;;;;14.02;4.45;;;;;;;9.26;100.00;100614.88;4986681;28;20038;-82
2023/03/22 06:38:58;;;;;;;14.63;4.63;;;;;;;9.28;100.00;100618.22;4971430;28;20709;-82
2023/03/22 06:41:24;;;;;;;9.68;3.95;;;;;;;9.32;100.00;100618.81;4985878;28;20031;-82
2023/03/22 06:43:50;;;;;;;10.82;4.30;;;;;;;9.34;100.00;100620.41;4954609;28;20129;-83
2023/03/22 06:46:15;;;;;;;9.52;3.90;;;;;;;9.38;100.00;100626.25;4975901;28;20114;-82
2023/03/22 06:48:41;;;;;;;14.30;4.75;;;;;;;9.43;100.00;100619.72;4988199;28;20034;-81
2023/03/22 06:51:06;;;;;;;10.68;4.47;;;;;;;9.48;100.00;100622.00;4988035;28;20033;-82
2023/03/22 06:53:32;;;;;;;12.27;4.40;;;;;;;9.56;100.00;100624.06;4985700;28;20140;-79
2023/03/22 06:55:58;;;;;;;10.57;4.38;;;;;;;9.64;100.00;100606.81;4969211;28;20023;-78
2023/03/22 06:58:23;;;;;;;9.85;4.38;;;;;;;9.77;100.00;100605.91;4969568;28;20057;-81
2023/03/22 07:00:49;;;;;;;12.60;4.88;;;;;;;9.84;99.54;100613.22;4975190;28;20045;-82
2023/03/22 07:03:14;;;;;;;12.18;4.30;;;;;;;9.91;98.75;100619.66;4988467;28;20389;-76
2023/03/22 07:05:40;;;;;;;11.20;4.65;;;;;;;9.90;98.06;100610.13;4977511;28;20026;-82
2023/03/22 07:08:05;;;;;;;12.02;4.63;;;;;;;9.90;98.57;100618.00;4982089;28;20026;-82
2023/03/22 07:10:31;;;;;;;11.23;4.05;;;;;;;9.90;97.51;100607.47;4973360;28;20030;-83
2023/03/22 07:12:57;;;;;;;9.65;4.10;;;;;;;9.90;97.34;100604.03;4995817;28;20026;-84
2023/03/22 07:15:23;;;;;;;10.23;3.80;;;;;;;9.91;96.77;100603.06;4972164;28;20058;-79
2023/03/22 07:17:50;;;;;;;14.20;4.50;;;;;;;9.91;96.27;100603.91;4989879;28;20029;-80
2023/03/22 07:20:17;;;;;;;11.48;4.32;;;;;;;9.95;96.82;100615.03;4977894;28;20102;-81
2023/03/22 07:22:43;;;;;;;8.10;4.25;;;;;;;9.97;96.25;100613.94;4968912;28;20506;-81
2023/03/22 07:25:08;;;;;;;13.85;5.05;;;;;;;10.05;96.07;100611.59;4969860;28;20031;-79
2023/03/22 07:27:35;;;;;;;11.55;4.80;;;;;;;10.12;95.89;100616.41;4969157;28;20027;-79
2023/03/22 07:30:01;;;;;;;13.38;5.60;;;;;;;10.17;94.82;100627.41;4970719;28;20026;-78
2023/03/22 07:32:26;;;;;;;11.95;4.63;;;;;;;10.22;94.94;100623.50;4967038;28;20074;-79
2023/03/22 07:34:54;;;;;;;13.85;5.00;;;;;;;10.25;94.53;100622.41;4965702;28;20066;-80
2023/03/22 07:37:20;;;;;;;11.90;5.32;;;;;;;10.28;93.80;100623.03;4951186;28;20028;-79
2023/03/22 07:39:45;;;;;;;13.38;5.78;;;;;;;10.34;94.22;100621.72;4951823;28;20025;-80
2023/03/22 07:42:10;;;;;;;10.65;4.80;;;;;;;10.40;93.77;100615.97;4968787;28;20853;-79
2023/03/22 07:44:37;;;;;;;11.45;5.28;;;;;;;10.47;93.61;100616.38;4993569;28;20542;-80
2023/03/22 07:47:02;;;;;;;11.85;5.07;;;;;;;10.55;92.90;100619.25;4969770;28;20097;-79
2023/03/22 07:49:29;;;;;;;11.13;4.50;;;;;;;10.65;91.30;100620.19;4969884;28;20029;-79
2023/03/22 07:51:55;;;;;;;16.60;4.97;;;;;;;10.76;90.71;100621.97;4969936;28;20038;-80
2023/03/22 07:54:20;;;;;;;12.52;4.40;;;;;;;10.85;90.50;100621.28;4968169;28;20043;-79
2023/03/22 07:56:46;;;;;;;10.48;4.20;;;;;;;10.90;89.48;100625.22;4969561;28;20077;-80
2023/03/22 07:59:15;;;;;;;12.55;4.18;;;;;;;10.88;88.04;100628.94;4967670;28;20819;-79
2023/03/22 08:01:42;;;;;;;9.82;3.50;;;;;;;10.87;87.58;100620.19;4965168;28;20568;-79
2023/03/22 08:04:08;;;;;;;11.85;3.65;;;;;;;10.89;87.51;100625.34;4982172;28;20101;-80
2023/03/22 08:06:35;;;;;;;11.18;3.40;;;;;;;10.87;86.46;100629.88;4989018;28;20622;-79
2023/03/22 08:09:01;;;;;;;11.60;3.30;;;;;;;10.84;86.43;100619.59;4973129;28;20046;-80
2023/03/22 08:11:27;;;;;;;8.77;3.20;;;;;;;10.90;86.73;100624.38;4992184;28;20023;-80
2023/03/22 08:13:53;;;;;;;9.98;3.17;;;;;;;10.97;85.77;100625.56;4979156;28;20027;-78
2023/03/22 08:16:18;;;;;;;14.65;3.22;;;;;;;11.07;86.05;100613.34;4971532;28;20027;-80
2023/03/22 08:18:44;;;;;;;10.32;3.20;;;;;;;11.08;84.77;100622.91;4968714;28;20023;-79
2023/03/22 08:21:09;;;;;;;12.73;3.25;;;;;;;11.13;85.60;100626.00;4953820;28;20417;-80
2023/03/22 08:23:35;;;;;;;13.57;3.55;;;;;;;11.15;84.83;100629.34;4984025;28;20440;-79
2023/03/22 08:26:01;;;;;;;9.25;3.10;;;;;;;11.24;85.08;100633.91;4984528;28;20443;-79
2023/03/22 08:28:27;;;;;;;11.63;3.03;;;;;;;11.36;84.25;100623.34;4953357;28;20055;-79
2023/03/22 08:30:52;;;;;;;9.60;3.00;;;;;;;11.50;84.13;100623.88;4966264;28;20030;-79
2023/03/22 08:33:20;;;;;;;9.23;3.38;;;;;;;11.56;82.68;100623.38;4964842;28;20057;-79
2023/03/22 08:35:46;;;;;;;8.00;2.60;;;;;;;11.61;82.62;100620.41;5004246;28;20027;-78
2023/03/22 08:38:11;;;;;;;9.10;2.92;;;;;;;11.65;82.14;100606.00;4972038;28;20077;-78
2023/03/22 08:40:37;;;;;;;12.23;2.83;;;;;;;11.69;82.30;100607.44;4972414;28;20073;-79
2023/03/22 08:43:02;;;;;;;11.88;3.10;;;;;;;11.71;82.19;100605.50;4972389;28;20172;-79
2023/03/22 08:45:28;;;;;;;12.70;3.25;;;;;;;11.68;80.75;100615.47;5003317;28;20030;-79
2023/03/22 08:47:54;;;;;;;7.20;2.85;;;;;;;11.69;81.92;100612.69;4971134;28;20026;-80
2023/03/22 08:50:19;;;;;;;7.45;2.60;;;;;;;11.79;82.02;100607.53;4967139;28;20388;-80
2023/03/22 08:52:45;;;;;;;10.45;2.92;;;;;;;11.83;81.41;100601.88;5004504;28;20031;-81
2023/03/22 08:55:10;;;;;;;9.60;2.70;;;;;;;11.87;80.79;100610.34;4973194;28;20394;-80
2023/03/22 08:57:36;;;;;;;9.77;2.63;;;;;;;11.87;81.31;100608.56;4972068;28;20030;-79
2023/03/22 09:00:05;;;;;;;12.20;2.70;;;;;;;11.94;81.00;100608.88;4972928;28;20027;-80
2023/03/22 09:02:31;;;;;;;12.32;2.88;;;;;;;11.89;78.95;100601.34;4974144;28;20038;-79
2023/03/22 09:04:57;;;;;;;11.43;2.95;;;;;;;11.88;78.85;100602.31;4977763;28;20353;-79
2023/03/22 09:07:23;;;;;;;11.00;2.45;;;;;;;11.94;80.07;100606.25;4985341;28;20034;-79
2023/03/22 09:09:49;;;;;;;10.65;2.65;;;;;;;12.01;79.66;100606.56;4987205;28;20046;-79
2023/03/22 09:12:15;;;;;;;13.80;2.80;;;;;;;12.00;79.65;100610.16;4988607;28;20030;-79
2023/03/22 09:14:41;;;;;;;10.27;2.42;;;;;;;12.05;78.88;100603.56;4989833;28;20081;-80
2023/03/22 09:17:06;;;;;;;8.27;2.30;;;;;;;12.14;78.16;100596.69;5013242;28;20035;-79
2023/03/22 09:19:32;;;;;;;11.23;2.40;;;;;;;12.19;78.14;100597.13;4974513;28;20030;-79
2023/03/22 09:21:58;;;;;;;13.38;2.90;;;;;;;12.36;78.76;100606.22;4970329;28;20037;-80
2023/03/22 09:24:24;;;;;;;12.48;2.42;;;;;;;12.40;77.04;100590.00;4970463;28;20061;-79
2023/03/22 09:26:50;;;;;;;10.00;2.15;;;;;;;12.37;76.49;100603.44;4971505;28;20067;-79
2023/03/22 09:29:16;;;;;;;12.73;2.92;;;;;;;12.32;76.64;100589.00;4974410;28;20080;-80
2023/03/22 09:31:42;;;;;;;8.35;2.47;;;;;;;12.40;77.74;100586.53;4971452;28;20077;-79
2023/03/22 09:34:07;;;;;;;10.00;3.03;;;;;;;12.47;77.12;100585.88;4971323;28;20019;-79
2023/03/22 09:36:33;;;;;;;10.52;2.33;;;;;;;12.50;76.43;100592.72;4970191;28;20077;-81
2023/03/22 09:38:59;;;;;;;13.55;3.17;;;;;;;12.45;75.94;100590.47;4965255;28;20641;-80
2023/03/22 09:41:37;;;;;;;12.60;2.75;;;;;;;12.39;76.19;100590.97;4966232;28;20074;-80
2023/03/22 09:44:10;;;;;;;15.68;2.80;;;;;;;12.29;75.45;100584.81;4983356;28;20082;-80
2023/03/22 09:46:45;;;;;;;13.30;2.90;;;;;;;12.19;76.40;100581.28;4951272;28;20031;-80
2023/03/22 09:49:16;;;;;;;10.18;2.80;;;;;;;12.11;76.30;100586.38;4970810;28;20511;-80
2023/03/22 09:51:51;;;;;;;11.80;2.45;;;;;;;12.07;76.48;100584.97;4955348;28;20034;-80
2023/03/22 09:54:20;;;;;;;9.43;2.45;;;;;;;12.02;76.96;100579.25;4969340;28;20039;-79
2023/03/22 09:57:27;;;;;;;10.77;3.15;;;;;;;12.10;78.07;100590.00;4965838;28;20341;-79
2023/03/22 10:00:15;;;;;;;10.15;2.75;;;;;;;12.02;77.09;100587.16;4971300;28;20093;-77
2023/03/22 10:03:07;;;;;;;11.05;3.10;;;;;;;12.02;78.35;100587.16;4970970;28;20027;-78
2023/03/22 10:05:52;;;;;;;10.15;2.65;;;;;;;11.90;77.88;100578.47;4970861;28;20066;-79
2023/03/22 10:08:21;;;;;;;11.68;2.85;;;;;;;11.84;78.12;100587.72;4970102;28;20141;-80
2023/03/22 10:10:46;;;;;;;14.07;2.78;;;;;;;11.85;78.22;100583.28;5000237;28;20034;-79
2023/03/22 10:13:22;;;;;;;9.15;2.42;;;;;;;11.89;78.56;100598.72;4968668;28;20038;-79
2023/03/22 10:16:01;;;;;;;11.18;2.63;;;;;;;11.89;79.38;100590.81;4966919;28;20070;-79
2023/03/22 10:18:42;;;;;;;12.32;2.80;;;;;;;11.93;79.81;100589.59;4952661;28;20086;-80
2023/03/22 10:21:10;;;;;;;10.02;2.85;;;;;;;11.87;79.97;100595.38;4952782;28;20023;-78
2023/03/22 10:23:46;;;;;;;10.48;2.42;;;;;;;11.83;81.63;100596.59;4966943;28;20059;-79
2023/03/22 10:26:33;;;;;;;12.48;2.60;;;;;;;11.73;82.02;100605.38;4967242;28;20468;-79
2023/03/22 10:29:09;;;;;;;15.05;2.53;;;;;;;11.60;83.39;100613.44;4957501;28;20026;-79
2023/03/22 10:31:34;;;;;;;10.93;2.90;;;;;;;11.49;87.59;100610.84;4970475;28;20023;-78
2023/03/22 10:34:20;;;;;;;11.25;2.40;;;;;;;11.36;89.47;100615.44;4963285;28;20026;-78
2023/03/22 10:36:48;;;;;;;9.13;2.67;;;;;;;11.10;90.98;100621.00;4974826;28;20109;-78
2023/03/22 10:39:34;;;;;;;12.13;2.78;;;;;;;11.02;93.81;100610.25;5019035;28;20486;-78
2023/03/22 10:42:03;;;;;;;9.65;3.17;;;;;;;10.93;96.50;100618.88;4989829;28;20030;-78
2023/03/22 10:44:33;;;;;;;10.45;2.92;;;;;;;10.87;98.22;100614.09;4988596;28;20122;-79
2023/03/22 10:47:06;;;;;;;9.43;2.75;;;;;;;10.86;99.37;100610.63;4985291;28;20093;-79
2023/03/22 10:49:37;;;;;;;12.95;3.13;;;;;;;10.83;100.00;100607.41;4975176;28;20147;-80
2023/03/22 10:52:21;;;;;;;9.15;3.38;;;;;;;10.87;100.00;100614.09;4963502;28;20043;-79
2023/03/22 10:54:46;;;;;;;19.35;3.40;;;;;;;10.86;100.00;100602.72;4977494;28;20026;-79
2023/03/22 10:57:12;;;;;;;11.85;3.25;;;;;;;10.93;100.00;100598.66;4988898;28;20118;-79
2023/03/22 10:59:47;;;;;;;10.70;3.30;;;;;;;10.86;100.00;100602.72;4989469;28;20034;-79
2023/03/22 11:02:25;;;;;;;11.68;3.22;;;;;;;10.79;100.00;100600.69;4988933;28;20136;-79
2023/03/22 11:04:56;;;;;;;17.27;3.78;;;;;;;10.72;100.00;100604.75;4970003;28;20400;-79
2023/03/22 11:07:35;;;;;;;16.38;3.65;;;;;;;10.67;100.00;100603.31;4969564;28;20018;-79
2023/03/22 11:10:03;;;;;;;11.95;3.60;;;;;;;10.62;100.00;100605.47;4951035;28;20090;-80
2023/03/22 11:12:29;;;;;;;11.43;3.42;;;;;;;10.60;100.00;100596.88;4949832;28;20110;-79
2023/03/22 11:14:55;;;;;;;9.65;3.55;;;;;;;10.64;100.00;100602.72;4950959;28;20114;-77
2023/03/22 11:17:24;;;;;;;12.38;4.10;;;;;;;10.68;100.00;100610.25;4989019;28;20026;-78
2023/03/22 11:20:05;;;;;;;11.63;3.22;;;;;;;10.80;100.00;100591.81;4983784;28;20034;-77
2023/03/22 11:22:44;;;;;;;9.75;3.20;;;;;;;10.82;100.00;100597.84;4970034;28;20046;-78
2023/03/22 11:25:21;;;;;;;10.38;3.03;;;;;;;10.91;100.00;100590.03;4964389;28;20089;-77
2023/03/22 11:28:13;;;;;;;11.13;3.50;;;;;;;11.02;100.00;100590.97;4950704;28;20031;-77